sensor_id;sensor_type;location;lat;lon;timestamp;temperature;humidity
5492;DHT22;2768;53.540;10.224;2023-02-25T00:00:12;4.30;1.00
5492;DHT22;2768;53.540;10.224;2023-02-25T00:06:13;4.20;1.00
5492;DHT22;2768;53.540;10.224;2023-02-25T00:12:07;4.20;1.00
5492;DHT22;2768;53.540;10.224;2023-02-25T00:18:01;4.20;1.00
5492;DHT22;2768;53.540;10.224;2023-02-25T00:23:55;4.20;1.00
5492;DHT22;2768;53.540;10.224;2023-02-25T00:30:07;4.20;1.00
5492;DHT22;2768;53.540;10.224;2023-02-25T00:36:05;4.20;1.00
5492;DHT22;2768;53.540;10.224;2023-02-25T00:42:00;4.20;99.90
5492;DHT22;2768;53.540;10.224;2023-02-25T00:47:54;4.20;99.90
5492;DHT22;2768;53.540;10.224;2023-02-25T00:53:47;4.30;99.90
5492;DHT22;2768;53.540;10.224;2023-02-25T00:59:42;4.30;99.90
5492;DHT22;2768;53.540;10.224;2023-02-25T01:05:39;4.30;99.90
5492;DHT22;2768;53.540;10.224;2023-02-25T01:11:35;4.20;99.90
5492;DHT22;2768;53.540;10.224;2023-02-25T01:17:29;4.40;99.90
5492;DHT22;2768;53.540;10.224;2023-02-25T01:23:22;4.20;99.90
5492;DHT22;2768;53.540;10.224;2023-02-25T01:29:20;4.20;99.90
5492;DHT22;2768;53.540;10.224;2023-02-25T01:35:15;4.10;99.90
5492;DHT22;2768;53.540;10.224;2023-02-25T01:41:09;4.10;99.90
5492;DHT22;2768;53.540;10.224;2023-02-25T01:47:03;4.10;99.90
5492;DHT22;2768;53.540;10.224;2023-02-25T01:53:01;4.10;99.90
5492;DHT22;2768;53.540;10.224;2023-02-25T01:58:55;4.10;99.90
5492;DHT22;2768;53.540;10.224;2023-02-25T02:04:52;4.10;99.90
5492;DHT22;2768;53.540;10.224;2023-02-25T02:10:47;4.10;99.90
5492;DHT22;2768;53.540;10.224;2023-02-25T02:23:18;4.00;99.90
5492;DHT22;2768;53.540;10.224;2023-02-25T02:35:55;4.00;99.90
5492;DHT22;2768;53.540;10.224;2023-02-25T02:41:58;4.00;99.90
5492;DHT22;2768;53.540;10.224;2023-02-25T02:47:56;4.10;99.90
5492;DHT22;2768;53.540;10.224;2023-02-25T02:53:54;4.10;99.90
5492;DHT22;2768;53.540;10.224;2023-02-25T02:59:52;3.90;99.90
5492;DHT22;2768;53.540;10.224;2023-02-25T03:05:49;3.90;99.90
5492;DHT22;2768;53.540;10.224;2023-02-25T03:11:46;3.90;99.90
5492;DHT22;2768;53.540;10.224;2023-02-25T03:17:43;3.80;99.90
5492;DHT22;2768;53.540;10.224;2023-02-25T03:23:39;3.70;99.90
5492;DHT22;2768;53.540;10.224;2023-02-25T03:29:35;3.80;99.90
5492;DHT22;2768;53.540;10.224;2023-02-25T03:35:29;3.90;99.90
5492;DHT22;2768;53.540;10.224;2023-02-25T03:41:27;3.80;99.90
5492;DHT22;2768;53.540;10.224;2023-02-25T03:47:25;3.80;99.90
5492;DHT22;2768;53.540;10.224;2023-02-25T03:53:20;3.80;99.90
5492;DHT22;2768;53.540;10.224;2023-02-25T03:59:18;3.90;99.90
5492;DHT22;2768;53.540;10.224;2023-02-25T04:05:18;3.80;99.90
5492;DHT22;2768;53.540;10.224;2023-02-25T04:11:12;3.70;99.90
5492;DHT22;2768;53.540;10.224;2023-02-25T04:17:07;3.80;99.90
5492;DHT22;2768;53.540;10.224;2023-02-25T04:23:06;3.80;99.90
5492;DHT22;2768;53.540;10.224;2023-02-25T04:28:59;3.70;99.90
5492;DHT22;2768;53.540;10.224;2023-02-25T04:34:52;3.80;99.90
5492;DHT22;2768;53.540;10.224;2023-02-25T04:40:46;3.80;99.90
5492;DHT22;2768;53.540;10.224;2023-02-25T04:46:42;3.60;99.90
5492;DHT22;2768;53.540;10.224;2023-02-25T04:52:36;3.50;99.90
5492;DHT22;2768;53.540;10.224;2023-02-25T04:58:31;3.50;99.90
5492;DHT22;2768;53.540;10.224;2023-02-25T05:04:24;3.40;99.90
5492;DHT22;2768;53.540;10.224;2023-02-25T05:10:18;3.30;99.90
5492;DHT22;2768;53.540;10.224;2023-02-25T05:16:15;3.30;99.90
5492;DHT22;2768;53.540;10.224;2023-02-25T05:22:09;3.40;99.90
5492;DHT22;2768;53.540;10.224;2023-02-25T05:28:02;3.30;99.90
5492;DHT22;2768;53.540;10.224;2023-02-25T05:33:59;3.30;99.90
5492;DHT22;2768;53.540;10.224;2023-02-25T05:39:52;3.30;99.90
5492;DHT22;2768;53.540;10.224;2023-02-25T05:45:51;3.30;99.90
5492;DHT22;2768;53.540;10.224;2023-02-25T05:51:47;3.20;99.90
5492;DHT22;2768;53.540;10.224;2023-02-25T05:57:41;3.30;99.90
5492;DHT22;2768;53.540;10.224;2023-02-25T06:03:34;3.30;99.90
5492;DHT22;2768;53.540;10.224;2023-02-25T06:09:29;3.30;99.90
5492;DHT22;2768;53.540;10.224;2023-02-25T06:15:22;3.30;99.90
5492;DHT22;2768;53.540;10.224;2023-02-25T06:21:16;3.10;99.90
5492;DHT22;2768;53.540;10.224;2023-02-25T06:27:11;3.10;99.90
5492;DHT22;2768;53.540;10.224;2023-02-25T06:33:05;3.20;99.90
5492;DHT22;2768;53.540;10.224;2023-02-25T06:38:58;3.30;99.90
5492;DHT22;2768;53.540;10.224;2023-02-25T06:44:53;3.20;99.90
5492;DHT22;2768;53.540;10.224;2023-02-25T06:50:46;3.30;99.90
5492;DHT22;2768;53.540;10.224;2023-02-25T06:56:39;3.30;99.90
5492;DHT22;2768;53.540;10.224;2023-02-25T07:02:34;3.10;99.90
5492;DHT22;2768;53.540;10.224;2023-02-25T07:08:27;2.70;1.00
5492;DHT22;2768;53.540;10.224;2023-02-25T07:14:21;2.50;1.00
5492;DHT22;2768;53.540;10.224;2023-02-25T07:20:15;2.60;1.00
5492;DHT22;2768;53.540;10.224;2023-02-25T07:26:10;2.50;1.00
5492;DHT22;2768;53.540;10.224;2023-02-25T07:32:04;2.60;1.00
5492;DHT22;2768;53.540;10.224;2023-02-25T07:38:01;2.60;1.00
5492;DHT22;2768;53.540;10.224;2023-02-25T07:43:55;2.70;1.00
5492;DHT22;2768;53.540;10.224;2023-02-25T07:49:48;2.50;1.00
5492;DHT22;2768;53.540;10.224;2023-02-25T07:55:44;2.60;1.00
5492;DHT22;2768;53.540;10.224;2023-02-25T08:01:37;2.70;1.00
5492;DHT22;2768;53.540;10.224;2023-02-25T08:07:31;2.80;1.00
5492;DHT22;2768;53.540;10.224;2023-02-25T08:13:26;2.80;99.90
5492;DHT22;2768;53.540;10.224;2023-02-25T08:19:19;2.90;99.90
5492;DHT22;2768;53.540;10.224;2023-02-25T08:25:12;2.90;99.90
5492;DHT22;2768;53.540;10.224;2023-02-25T08:31:07;2.80;99.90
5492;DHT22;2768;53.540;10.224;2023-02-25T08:37:03;2.90;1.00
5492;DHT22;2768;53.540;10.224;2023-02-25T08:42:56;2.60;1.00
5492;DHT22;2768;53.540;10.224;2023-02-25T08:48:52;2.00;1.00
5492;DHT22;2768;53.540;10.224;2023-02-25T08:54:45;2.00;1.00
5492;DHT22;2768;53.540;10.224;2023-02-25T09:00:40;2.40;1.00
5492;DHT22;2768;53.540;10.224;2023-02-25T09:06:34;2.50;1.00
5492;DHT22;2768;53.540;10.224;2023-02-25T09:12:29;2.40;1.00
5492;DHT22;2768;53.540;10.224;2023-02-25T09:18:22;2.50;1.00
5492;DHT22;2768;53.540;10.224;2023-02-25T09:24:17;2.40;1.00
5492;DHT22;2768;53.540;10.224;2023-02-25T09:30:10;2.30;1.00
5492;DHT22;2768;53.540;10.224;2023-02-25T09:36:06;2.30;1.00
5492;DHT22;2768;53.540;10.224;2023-02-25T09:42:05;2.40;1.00
5492;DHT22;2768;53.540;10.224;2023-02-25T09:48:02;2.30;1.00
5492;DHT22;2768;53.540;10.224;2023-02-25T09:54:05;2.30;1.00
5492;DHT22;2768;53.540;10.224;2023-02-25T10:00:02;2.50;1.00
5492;DHT22;2768;53.540;10.224;2023-02-25T10:06:08;2.70;1.00
5492;DHT22;2768;53.540;10.224;2023-02-25T10:12:12;3.00;1.00
5492;DHT22;2768;53.540;10.224;2023-02-25T10:18:25;3.20;1.00
5492;DHT22;2768;53.540;10.224;2023-02-25T10:24:28;4.10;1.00
5492;DHT22;2768;53.540;10.224;2023-02-25T10:30:26;4.80;99.90
5492;DHT22;2768;53.540;10.224;2023-02-25T10:36:29;4.10;99.90
5492;DHT22;2768;53.540;10.224;2023-02-25T10:42:23;3.90;99.90
5492;DHT22;2768;53.540;10.224;2023-02-25T10:48:19;3.70;99.90
5492;DHT22;2768;53.540;10.224;2023-02-25T10:54:15;3.40;99.90
5492;DHT22;2768;53.540;10.224;2023-02-25T11:00:21;3.30;99.90
5492;DHT22;2768;53.540;10.224;2023-02-25T11:06:22;3.20;99.90
5492;DHT22;2768;53.540;10.224;2023-02-25T11:12:18;3.20;99.90
5492;DHT22;2768;53.540;10.224;2023-02-25T11:18:18;3.20;99.90
5492;DHT22;2768;53.540;10.224;2023-02-25T11:24:15;3.40;99.90
5492;DHT22;2768;53.540;10.224;2023-02-25T11:30:19;3.80;99.90
5492;DHT22;2768;53.540;10.224;2023-02-25T11:36:20;3.90;99.90
5492;DHT22;2768;53.540;10.224;2023-02-25T11:42:21;5.00;99.90
5492;DHT22;2768;53.540;10.224;2023-02-25T11:48:19;5.20;99.90
5492;DHT22;2768;53.540;10.224;2023-02-25T11:54:24;5.20;99.90
5492;DHT22;2768;53.540;10.224;2023-02-25T12:00:25;4.80;99.90
5492;DHT22;2768;53.540;10.224;2023-02-25T12:06:28;6.50;99.90
5492;DHT22;2768;53.540;10.224;2023-02-25T12:12:47;5.40;99.90
5492;DHT22;2768;53.540;10.224;2023-02-25T12:19:11;4.50;99.90
5492;DHT22;2768;53.540;10.224;2023-02-25T12:25:22;5.40;99.90
5492;DHT22;2768;53.540;10.224;2023-02-25T12:31:43;6.40;99.90
5492;DHT22;2768;53.540;10.224;2023-02-25T12:37:52;6.50;99.90
5492;DHT22;2768;53.540;10.224;2023-02-25T12:50:42;7.40;99.90
5492;DHT22;2768;53.540;10.224;2023-02-25T12:57:07;5.80;99.90
5492;DHT22;2768;53.540;10.224;2023-02-25T13:03:20;7.00;99.90
5492;DHT22;2768;53.540;10.224;2023-02-25T13:15:38;7.50;99.90
5492;DHT22;2768;53.540;10.224;2023-02-25T13:21:49;6.50;99.70
5492;DHT22;2768;53.540;10.224;2023-02-25T13:28:03;6.50;93.30
5492;DHT22;2768;53.540;10.224;2023-02-25T13:34:12;7.90;97.70
5492;DHT22;2768;53.540;10.224;2023-02-25T13:40:23;9.20;91.70
5492;DHT22;2768;53.540;10.224;2023-02-25T13:46:35;8.00;65.70
5492;DHT22;2768;53.540;10.224;2023-02-25T13:52:34;6.70;50.60
5492;DHT22;2768;53.540;10.224;2023-02-25T13:58:53;6.90;51.50
5492;DHT22;2768;53.540;10.224;2023-02-25T14:05:19;6.90;48.30
5492;DHT22;2768;53.540;10.224;2023-02-25T14:11:26;7.00;43.60
5492;DHT22;2768;53.540;10.224;2023-02-25T14:17:42;8.00;46.50
5492;DHT22;2768;53.540;10.224;2023-02-25T14:23:44;7.10;28.10
5492;DHT22;2768;53.540;10.224;2023-02-25T14:29:48;6.20;20.40
5492;DHT22;2768;53.540;10.224;2023-02-25T14:36:05;6.70;28.10
5492;DHT22;2768;53.540;10.224;2023-02-25T14:42:21;6.70;21.80
5492;DHT22;2768;53.540;10.224;2023-02-25T14:48:24;6.90;17.00
5492;DHT22;2768;53.540;10.224;2023-02-25T14:55:02;6.40;11.40
5492;DHT22;2768;53.540;10.224;2023-02-25T15:07:51;5.50;4.60
5492;DHT22;2768;53.540;10.224;2023-02-25T15:20:26;5.30;4.10
5492;DHT22;2768;53.540;10.224;2023-02-25T15:26:26;6.00;1.00
5492;DHT22;2768;53.540;10.224;2023-02-25T15:38:56;5.00;1.00
5492;DHT22;2768;53.540;10.224;2023-02-25T15:44:50;4.70;1.00
5492;DHT22;2768;53.540;10.224;2023-02-25T15:50:52;4.50;1.00
5492;DHT22;2768;53.540;10.224;2023-02-25T15:56:48;4.30;1.00
5492;DHT22;2768;53.540;10.224;2023-02-25T16:02:42;4.70;4.00
5492;DHT22;2768;53.540;10.224;2023-02-25T16:08:44;4.40;3.80
5492;DHT22;2768;53.540;10.224;2023-02-25T16:14:38;4.40;1.00
5492;DHT22;2768;53.540;10.224;2023-02-25T16:20:40;4.30;3.40
5492;DHT22;2768;53.540;10.224;2023-02-25T16:26:45;4.30;9.00
5492;DHT22;2768;53.540;10.224;2023-02-25T16:32:46;4.10;3.60
5492;DHT22;2768;53.540;10.224;2023-02-25T16:38:48;4.00;1.70
5492;DHT22;2768;53.540;10.224;2023-02-25T16:44:57;3.80;3.40
5492;DHT22;2768;53.540;10.224;2023-02-25T16:50:52;3.80;3.40
5492;DHT22;2768;53.540;10.224;2023-02-25T16:56:54;3.70;3.30
5492;DHT22;2768;53.540;10.224;2023-02-25T17:02:52;3.70;8.50
5492;DHT22;2768;53.540;10.224;2023-02-25T17:08:50;3.80;17.30
5492;DHT22;2768;53.540;10.224;2023-02-25T17:14:45;3.70;20.90
5492;DHT22;2768;53.540;10.224;2023-02-25T17:20:41;3.90;24.70
5492;DHT22;2768;53.540;10.224;2023-02-25T17:26:39;3.50;24.20
5492;DHT22;2768;53.540;10.224;2023-02-25T17:32:32;3.50;27.00
5492;DHT22;2768;53.540;10.224;2023-02-25T17:38:27;3.40;28.00
5492;DHT22;2768;53.540;10.224;2023-02-25T17:44:43;3.50;35.20
5492;DHT22;2768;53.540;10.224;2023-02-25T17:50:37;3.40;40.00
5492;DHT22;2768;53.540;10.224;2023-02-25T17:56:33;3.30;48.20
5492;DHT22;2768;53.540;10.224;2023-02-25T18:02:33;3.30;60.00
5492;DHT22;2768;53.540;10.224;2023-02-25T18:08:28;3.00;65.00
5492;DHT22;2768;53.540;10.224;2023-02-25T18:14:29;3.20;67.90
5492;DHT22;2768;53.540;10.224;2023-02-25T18:20:27;3.00;69.60
5492;DHT22;2768;53.540;10.224;2023-02-25T18:26:23;2.80;64.20
5492;DHT22;2768;53.540;10.224;2023-02-25T18:32:19;2.90;65.30
5492;DHT22;2768;53.540;10.224;2023-02-25T18:38:15;2.80;72.30
5492;DHT22;2768;53.540;10.224;2023-02-25T18:44:12;2.80;81.00
5492;DHT22;2768;53.540;10.224;2023-02-25T18:50:08;2.80;90.30
5492;DHT22;2768;53.540;10.224;2023-02-25T18:56:01;2.60;88.40
5492;DHT22;2768;53.540;10.224;2023-02-25T19:01:54;2.50;91.90
5492;DHT22;2768;53.540;10.224;2023-02-25T19:07:50;2.20;94.40
5492;DHT22;2768;53.540;10.224;2023-02-25T19:13:44;2.40;98.10
5492;DHT22;2768;53.540;10.224;2023-02-25T19:19:37;2.40;99.90
5492;DHT22;2768;53.540;10.224;2023-02-25T19:25:34;2.40;99.90
5492;DHT22;2768;53.540;10.224;2023-02-25T19:31:27;2.30;99.90
5492;DHT22;2768;53.540;10.224;2023-02-25T19:37:21;2.20;99.90
5492;DHT22;2768;53.540;10.224;2023-02-25T19:43:16;2.20;99.90
5492;DHT22;2768;53.540;10.224;2023-02-25T19:49:10;2.60;99.90
5492;DHT22;2768;53.540;10.224;2023-02-25T19:55:04;2.80;99.90
5492;DHT22;2768;53.540;10.224;2023-02-25T20:01:04;2.70;99.90
5492;DHT22;2768;53.540;10.224;2023-02-25T20:06:59;2.80;99.90
5492;DHT22;2768;53.540;10.224;2023-02-25T20:12:52;2.70;99.90
5492;DHT22;2768;53.540;10.224;2023-02-25T20:18:49;2.50;99.90
5492;DHT22;2768;53.540;10.224;2023-02-25T20:24:43;2.60;99.90
5492;DHT22;2768;53.540;10.224;2023-02-25T20:30:38;2.10;99.90
5492;DHT22;2768;53.540;10.224;2023-02-25T20:36:37;2.00;99.90
5492;DHT22;2768;53.540;10.224;2023-02-25T20:42:32;2.00;99.90
5492;DHT22;2768;53.540;10.224;2023-02-25T20:48:28;2.20;99.90
5492;DHT22;2768;53.540;10.224;2023-02-25T20:54:24;2.20;99.90
5492;DHT22;2768;53.540;10.224;2023-02-25T21:00:18;2.00;99.90
5492;DHT22;2768;53.540;10.224;2023-02-25T21:06:13;2.10;99.90
5492;DHT22;2768;53.540;10.224;2023-02-25T21:12:09;2.10;99.90
5492;DHT22;2768;53.540;10.224;2023-02-25T21:18:02;2.10;99.90
5492;DHT22;2768;53.540;10.224;2023-02-25T21:23:56;2.00;99.90
5492;DHT22;2768;53.540;10.224;2023-02-25T21:29:51;1.90;99.90
5492;DHT22;2768;53.540;10.224;2023-02-25T21:35:45;1.80;99.90
5492;DHT22;2768;53.540;10.224;2023-02-25T21:41:44;1.70;99.90
5492;DHT22;2768;53.540;10.224;2023-02-25T21:47:38;1.50;99.90
5492;DHT22;2768;53.540;10.224;2023-02-25T21:53:32;1.50;99.90
5492;DHT22;2768;53.540;10.224;2023-02-25T21:59:26;1.40;99.90
5492;DHT22;2768;53.540;10.224;2023-02-25T22:05:21;1.40;99.90
5492;DHT22;2768;53.540;10.224;2023-02-25T22:11:16;1.40;99.90
5492;DHT22;2768;53.540;10.224;2023-02-25T22:17:10;1.30;99.90
5492;DHT22;2768;53.540;10.224;2023-02-25T22:23:05;1.20;99.90
5492;DHT22;2768;53.540;10.224;2023-02-25T22:28:59;1.30;99.90
5492;DHT22;2768;53.540;10.224;2023-02-25T22:34:53;1.10;99.90
5492;DHT22;2768;53.540;10.224;2023-02-25T22:40:48;1.00;99.90
5492;DHT22;2768;53.540;10.224;2023-02-25T22:46:41;1.10;99.90
5492;DHT22;2768;53.540;10.224;2023-02-25T22:52:35;1.20;99.90
5492;DHT22;2768;53.540;10.224;2023-02-25T22:58:29;1.10;99.90
5492;DHT22;2768;53.540;10.224;2023-02-25T23:04:23;1.10;99.90
5492;DHT22;2768;53.540;10.224;2023-02-25T23:10:17;1.00;99.90
5492;DHT22;2768;53.540;10.224;2023-02-25T23:16:11;1.00;99.90
5492;DHT22;2768;53.540;10.224;2023-02-25T23:22:05;1.00;99.90
5492;DHT22;2768;53.540;10.224;2023-02-25T23:28:00;1.10;99.90
5492;DHT22;2768;53.540;10.224;2023-02-25T23:33:56;1.10;99.90
5492;DHT22;2768;53.540;10.224;2023-02-25T23:39:50;1.10;99.90
5492;DHT22;2768;53.540;10.224;2023-02-25T23:45:43;1.10;99.90
5492;DHT22;2768;53.540;10.224;2023-02-25T23:51:42;1.10;99.90
5492;DHT22;2768;53.540;10.224;2023-02-25T23:57:35;1.20;99.90
